This is the latest recevied weather packets stored in our database for station/object DG2US-10. If no packets are shown the sender has not sent any weather packets the latest 10 day(s).
| Time | Temp. | Humidity | Pressure | Rain* | Wind** | Luminosity | Snow |
|---|---|---|---|---|---|---|---|
| 1777708526 | 34.44° C | 19% | 1023.8 hPa | - | - | - | - |
| 1777707626 | 31.11° C | 21% | 1023.9 hPa | - | - | - | - |
| 1777706726 | 30.56° C | 22% | 1024 hPa | - | - | - | - |
| 1777705826 | 30° C | 25% | 1024 hPa | - | - | - | - |
| 1777704926 | 26.11° C | 28% | 1024.1 hPa | - | - | - | - |
| 1777704026 | 25° C | 30% | 1024.1 hPa | - | - | - | - |
| 1777703126 | 23.33° C | 33% | 1024.2 hPa | - | - | - | - |
| 1777702226 | 20.56° C | 36% | 1024.3 hPa | - | - | - | - |
| 1777701325 | 18.89° C | 39% | 1024.3 hPa | - | - | - | - |
| 1777700426 | 17.78° C | 42% | 1024.3 hPa | - | - | - | - |
| 1777699526 | 15.56° C | 47% | 1024.4 hPa | - | - | - | - |
| 1777698625 | 13.33° C | 54% | 1024.4 hPa | - | - | - | - |
| 1777697725 | 11.11° C | 59% | 1024.5 hPa | - | - | - | - |
| 1777696825 | 8.89° C | 59% | 1024.5 hPa | - | - | - | - |
| 1777695925 | 7.78° C | 55% | 1024.4 hPa | - | - | - | - |
| 1777695025 | 7.22° C | 45% | 1024.4 hPa | - | - | - | - |
| 1777694125 | 7.22° C | 42% | 1024.6 hPa | - | - | - | - |
| 1777693225 | 7.78° C | 41% | 1024.6 hPa | - | - | - | - |
| 1777692325 | 7.78° C | 40% | 1024.5 hPa | - | - | - | - |
| 1777691425 | 8.33° C | 40% | 1024.6 hPa | - | - | - | - |
| 1777690525 | 8.33° C | 41% | 1024.7 hPa | - | - | - | - |
| 1777689625 | 8.89° C | 40% | 1024.6 hPa | - | - | - | - |
| 1777688725 | 8.89° C | 39% | 1024.8 hPa | - | - | - | - |
| 1777687825 | 9.44° C | 39% | 1024.8 hPa | - | - | - | - |
| 1777686925 | 9.44° C | 39% | 1024.9 hPa | - | - | - | - |
* Rain since midnight (hover to see other rain measurements)
** Current wind speed in m/s (hover to see current wind gust speed)